Terminal Aerodrome Forecast
Issued by NWS

Home | Current Version | Previous Version | Text Only | Print | Product List | Glossary On
Versions: 1 2 3 4 5 6 7 8 9 10 11 12 13
150
FTAK31 PAJN 210520
TAFAPG
TAF
PAPG 210520Z 2106/2206 23004KT P6SM FEW040 SCT060
     FM211200 VRB04KT P6SM SCT040 BKN110
     FM212000 06004KT P6SM SCT040 BKN050
     FM220300 24003KT P6SM SCT050 SCT070
      AMD LTD TO CLD VIS AND WIND 2106/2115=

USA.gov is the U.S. government's official web portal to all federal, state and local government web resources and services.